EDT,Max TemperatureF,Mean TemperatureF,Min TemperatureF,Max Dew PointF,MeanDew PointF,Min DewpointF,Max Humidity, Mean Humidity, Min Humidity, Max Sea Level PressureIn, Mean Sea Level PressureIn, Min Sea Level PressureIn, Max VisibilityMiles, Mean VisibilityMiles, Min VisibilityMiles, Max Wind SpeedMPH, Mean Wind SpeedMPH, Max Gust SpeedMPH,PrecipitationIn, CloudCover, Events, WindDirDegrees
2013-6-1,82,71,60,66,62,61,100,73,51,30.20,30.15,30.09,10,10,10,14,3,22,0.00,2,Thunderstorm,196
2013-6-2,73,68,62,68,64,61,100,88,73,30.12,30.05,30.00,10,9,0,9,2,,0.19,5,Fog-Rain-Thunderstorm,223
2013-6-3,82,73,64,68,63,59,100,79,45,30.06,29.98,29.92,10,8,0,14,1,22,0.00,5,Fog,303
2013-6-4,73,66,60,63,60,57,100,83,57,30.19,30.13,30.05,10,10,7,7,2,,0.00,5,Rain,55
2013-6-5,68,64,59,63,61,59,100,92,83,30.20,30.16,30.10,10,8,2,8,3,,0.00,8,,61
2013-6-6,73,66,60,70,65,61,100,96,83,30.09,29.96,29.87,10,7,2,6,3,,2.12,7,Rain,71
2013-6-7,77,70,64,68,65,61,100,86,65,29.92,29.80,29.73,10,10,7,10,2,,0.22,7,Rain,12
2013-6-8,80,70,60,66,63,59,100,80,57,30.17,30.04,29.90,10,9,2,7,1,,0.21,5,Rain,185
2013-6-9,82,72,62,70,66,63,100,87,54,30.24,30.18,30.13,10,8,0,12,1,,0.98,5,Fog-Rain-Thunderstorm,158
2013-6-10,78,71,64,70,66,64,100,88,65,30.17,30.04,29.96,10,9,4,15,4,25,0.14,6,Rain,199
2013-6-11,82,72,62,64,62,61,100,75,48,30.07,30.03,29.99,10,10,7,13,3,21,0.01,2,Rain,288
2013-6-12,89,74,59,73,66,59,100,78,49,30.08,30.03,29.97,10,9,3,14,2,21,0.00,0,Thunderstorm,248
2013-6-13,89,78,68,70,65,55,94,73,48,29.97,29.86,29.76,10,10,7,15,4,50,0.04,2,Rain-Thunderstorm,252
2013-6-14,77,66,55,55,53,50,94,62,39,30.13,30.00,29.90,10,10,10,13,4,21,0.00,1,,328
2013-6-15,80,66,51,63,58,52,100,73,48,30.23,30.16,30.12,10,10,10,10,1,,0.00,1,,207
2013-6-16,82,71,60,66,63,59,100,76,54,30.20,30.14,30.09,10,10,10,13,3,18,0.00,1,,231
2013-6-17,80,73,66,70,66,64,94,81,58,30.12,30.07,30.03,10,10,7,7,1,,0.00,4,Rain-Thunderstorm,194
2013-6-18,78,72,66,70,67,63,100,91,69,30.04,29.95,29.89,10,9,2,9,1,,0.18,7,Rain,277
2013-6-19,78,68,59,64,61,59,100,81,54,30.22,30.09,30.00,10,10,3,12,1,,0.00,3,,104
2013-6-20,77,70,62,64,63,61,100,84,57,30.33,30.28,30.22,10,9,4,12,2,,0.00,5,,84
2013-6-21,80,70,60,63,61,59,100,75,51,30.36,30.32,30.27,10,9,4,8,2,,0.00,2,,72
2013-6-22,80,68,55,64,60,55,100,74,45,30.33,30.28,30.21,10,9,4,8,2,,0.00,1,,63
2013-6-23,84,73,62,68,64,61,100,76,45,30.30,30.25,30.20,10,10,5,7,2,,0.00,2,,156
2013-6-24,82,73,64,70,67,64,100,84,61,30.30,30.24,30.18,10,9,1,8,1,,0.00,2,Thunderstorm,225
2013-6-25,87,74,62,70,66,63,100,81,46,30.22,30.17,30.10,10,9,1,7,1,,0.00,1,Thunderstorm,237
2013-6-26,89,76,64,72,68,64,100,84,49,30.11,30.05,30.00,10,9,4,13,2,23,0.03,2,Rain-Thunderstorm,218
2013-6-27,84,74,64,70,67,64,100,82,62,30.03,29.90,29.82,10,9,5,10,3,17,0.11,5,Rain-Thunderstorm,242
2013-6-28,87,76,64,70,66,63,100,77,43,29.85,29.77,29.69,10,10,5,17,3,26,0.00,3,Rain-Thunderstorm,252
2013-6-29,84,72,60,66,64,61,100,77,48,29.79,29.74,29.71,10,10,7,9,2,,0.00,3,,207
2013-6-30,82,73,64,70,66,63,100,82,51,29.93,29.84,29.78,10,9,5,8,2,,0.21,6,Rain-Thunderstorm,145